createdAt,value
2022-12-05T00:01:31.216Z,12.43
2022-12-05T00:04:00.976Z,9.73
2022-12-05T00:06:30.678Z,10.97
2022-12-05T00:08:59.388Z,10.20
2022-12-05T00:11:31.526Z,11.10
2022-12-05T00:14:01.766Z,8.30
2022-12-05T00:16:31.739Z,8.77
2022-12-05T00:19:01.061Z,13.10
2022-12-05T00:21:31.359Z,9.30
2022-12-05T00:24:00.878Z,9.93
2022-12-05T00:26:31.754Z,17.57
2022-12-05T00:29:00.540Z,11.33
2022-12-05T00:31:29.469Z,10.63
2022-12-05T00:34:00.630Z,12.40
2022-12-05T00:36:30.154Z,11.37
2022-12-05T00:39:01.016Z,10.43
2022-12-05T00:41:31.238Z,8.77
2022-12-05T00:44:01.261Z,9.93
2022-12-05T00:46:31.793Z,9.07
2022-12-05T00:49:01.371Z,9.23
2022-12-05T00:51:32.635Z,10.10
2022-12-05T00:54:02.329Z,9.27
2022-12-05T00:56:32.977Z,9.77
2022-12-05T00:59:02.299Z,10.57
2022-12-05T01:01:32.917Z,11.77
2022-12-05T01:04:03.137Z,13.60
2022-12-05T01:06:31.322Z,14.73
2022-12-05T01:08:59.841Z,10.93
2022-12-05T01:11:28.782Z,9.03
2022-12-05T01:13:58.691Z,15.20
2022-12-05T01:16:28.584Z,13.30
2022-12-05T01:18:57.944Z,12.03
2022-12-05T01:21:26.433Z,10.90
2022-12-05T01:23:54.672Z,14.33
2022-12-05T01:26:23.485Z,14.03
2022-12-05T01:28:52.148Z,12.90
2022-12-05T01:31:24.870Z,16.20
2022-12-05T01:33:53.709Z,10.07
2022-12-05T01:36:22.390Z,14.63
2022-12-05T01:38:50.660Z,10.77
2022-12-05T01:41:21.621Z,10.63
2022-12-05T01:44:02.042Z,12.17
2022-12-05T01:46:34.137Z,15.43
2022-12-05T01:49:07.938Z,11.50
2022-12-05T01:51:38.287Z,9.33
2022-12-05T01:54:07.293Z,9.80
2022-12-05T01:56:36.520Z,9.13
2022-12-05T01:59:06.930Z,8.47
2022-12-05T02:01:37.168Z,7.90
2022-12-05T02:04:05.793Z,8.90
2022-12-05T02:06:34.579Z,10.47
2022-12-05T02:09:02.766Z,9.37
2022-12-05T02:11:32.885Z,10.87
2022-12-05T02:14:21.601Z,9.20
2022-12-05T02:16:59.544Z,11.10
2022-12-05T02:20:13.673Z,9.50
2022-12-05T02:23:02.982Z,9.33
2022-12-05T02:26:00.193Z,12.63
2022-12-05T02:28:42.936Z,11.20
2022-12-05T02:31:17.354Z,11.47
2022-12-05T02:33:49.547Z,10.13
2022-12-05T02:36:24.081Z,7.87
2022-12-05T02:39:01.065Z,7.23
2022-12-05T02:41:33.867Z,8.90
2022-12-05T02:44:05.817Z,7.67
2022-12-05T02:46:38.957Z,7.77
2022-12-05T02:49:10.618Z,7.00
2022-12-05T02:51:43.692Z,7.00
2022-12-05T02:54:27.461Z,7.67
2022-12-05T02:56:57.638Z,9.33
2022-12-05T02:59:25.814Z,6.13
2022-12-05T03:01:55.289Z,6.00
2022-12-05T03:04:25.991Z,5.40
2022-12-05T03:06:57.842Z,6.63
2022-12-05T03:09:30.032Z,8.50
2022-12-05T03:12:04.158Z,7.50
2022-12-05T03:14:39.393Z,6.20
2022-12-05T03:17:13.631Z,8.10
2022-12-05T03:19:48.481Z,8.00
2022-12-05T03:22:25.427Z,9.73
2022-12-05T03:24:53.823Z,10.03
2022-12-05T03:27:26.755Z,11.07
2022-12-05T03:29:58.310Z,11.20
2022-12-05T03:32:35.955Z,11.47
2022-12-05T03:35:09.511Z,10.50
2022-12-05T03:37:46.940Z,11.20
2022-12-05T03:40:28.638Z,12.93
2022-12-05T03:43:09.043Z,11.60
2022-12-05T03:45:43.974Z,10.63
2022-12-05T03:48:19.671Z,10.13
2022-12-05T03:50:49.946Z,10.70
2022-12-05T03:53:21.416Z,8.97
2022-12-05T03:55:58.092Z,9.10
2022-12-05T03:58:32.232Z,10.47
2022-12-05T04:01:02.489Z,12.70
2022-12-05T04:03:40.180Z,12.53
2022-12-05T04:06:15.287Z,14.37
2022-12-05T04:08:49.288Z,13.63
2022-12-05T04:11:21.496Z,15.13
2022-12-05T04:13:53.790Z,12.40
2022-12-05T04:16:43.532Z,10.87
2022-12-05T04:19:17.723Z,13.13
2022-12-05T04:21:50.101Z,11.93
2022-12-05T04:24:38.103Z,12.63
2022-12-05T04:27:19.257Z,14.20
2022-12-05T04:29:56.384Z,16.23
2022-12-05T04:32:28.804Z,14.37
2022-12-05T04:35:02.512Z,12.30
2022-12-05T04:37:36.483Z,15.03
2022-12-05T04:40:12.127Z,13.77
2022-12-05T04:42:42.641Z,13.47
2022-12-05T04:45:14.167Z,11.20
2022-12-05T04:47:47.610Z,14.40
2022-12-05T04:50:18.791Z,13.10
2022-12-05T04:52:51.217Z,11.63
2022-12-05T04:55:25.887Z,14.00
2022-12-05T04:58:01.392Z,15.23
2022-12-05T05:00:30.369Z,13.10
2022-12-05T05:03:05.002Z,16.57
2022-12-05T05:05:37.148Z,14.90
2022-12-05T05:08:05.613Z,10.70
2022-12-05T05:10:39.386Z,15.40
2022-12-05T05:13:07.401Z,13.17
2022-12-05T05:15:35.492Z,14.23
2022-12-05T05:18:03.545Z,12.50
2022-12-05T05:20:31.571Z,11.87
2022-12-05T05:23:00.951Z,14.00
2022-12-05T05:25:28.976Z,12.87
2022-12-05T05:27:57.806Z,16.90
2022-12-05T05:30:26.481Z,14.73
2022-12-05T05:32:54.935Z,19.37
2022-12-05T05:35:23.225Z,12.40
2022-12-05T05:37:51.270Z,17.20
2022-12-05T05:40:21.103Z,15.03
2022-12-05T05:42:51.048Z,14.73
2022-12-05T05:45:19.526Z,12.20
2022-12-05T05:47:49.702Z,15.30
2022-12-05T05:50:21.422Z,17.30
2022-12-05T05:52:50.149Z,13.60
2022-12-05T05:55:18.361Z,13.80
2022-12-05T05:57:47.767Z,17.93
2022-12-05T06:00:17.107Z,21.47
2022-12-05T06:02:45.414Z,17.40
2022-12-05T06:05:13.698Z,17.87
2022-12-05T06:07:41.858Z,22.17
2022-12-05T06:10:10.527Z,20.37
2022-12-05T06:12:38.563Z,12.47
2022-12-05T06:15:09.583Z,20.40
2022-12-05T06:17:37.594Z,18.43
2022-12-05T06:20:06.483Z,17.40
2022-12-05T06:22:34.720Z,19.00
2022-12-05T06:25:02.777Z,15.47
2022-12-05T06:27:32.167Z,18.40
2022-12-05T06:30:00.800Z,17.47
2022-12-05T06:32:30.732Z,19.73
2022-12-05T06:34:58.750Z,18.20
2022-12-05T06:37:26.825Z,15.43
2022-12-05T06:39:54.944Z,15.87
2022-12-05T06:42:23.033Z,21.17
2022-12-05T06:44:51.034Z,18.27
2022-12-05T06:47:19.469Z,17.30
2022-12-05T06:49:48.822Z,23.73
2022-12-05T06:52:16.931Z,19.47
2022-12-05T06:54:46.672Z,23.27
2022-12-05T06:57:15.105Z,16.60
2022-12-05T06:59:43.107Z,16.17
2022-12-05T07:02:12.863Z,19.50
2022-12-05T07:04:40.884Z,18.77
2022-12-05T07:07:10.354Z,15.27
2022-12-05T07:09:48.307Z,16.13
2022-12-05T07:12:18.976Z,17.80
2022-12-05T07:14:49.354Z,14.93
2022-12-05T07:17:18.552Z,14.33
2022-12-05T07:19:49.453Z,18.37
2022-12-05T07:22:19.208Z,17.03
2022-12-05T07:24:47.534Z,18.77
2022-12-05T07:27:18.482Z,24.40
2022-12-05T07:29:48.691Z,18.03
2022-12-05T07:32:17.848Z,17.67
2022-12-05T07:34:47.111Z,16.70
2022-12-05T07:37:19.033Z,17.50
2022-12-05T07:39:47.067Z,16.07
2022-12-05T07:42:15.079Z,24.97
2022-12-05T07:44:43.111Z,16.50
2022-12-05T07:47:11.543Z,16.30
2022-12-05T07:49:39.610Z,16.10
2022-12-05T07:52:07.656Z,18.67
2022-12-05T07:54:37.321Z,16.30
2022-12-05T07:57:05.738Z,17.50
2022-12-05T07:59:33.765Z,13.93
2022-12-05T08:02:01.939Z,14.33
2022-12-05T08:04:30.206Z,14.50
2022-12-05T08:06:58.262Z,17.33
2022-12-05T08:09:26.605Z,16.57
2022-12-05T08:11:55.973Z,18.17
2022-12-05T08:14:24.029Z,15.30
2022-12-05T08:16:52.134Z,15.73
2022-12-05T08:19:20.312Z,17.33
2022-12-05T08:21:48.486Z,18.70
2022-12-05T08:24:16.684Z,18.20
2022-12-05T08:26:44.723Z,15.20
2022-12-05T08:29:16.320Z,20.63
2022-12-05T08:31:47.739Z,18.30
2022-12-05T08:34:17.018Z,15.27
2022-12-05T08:36:45.788Z,18.63
2022-12-05T08:39:16.433Z,22.23
2022-12-05T08:41:44.821Z,17.50
2022-12-05T08:44:16.354Z,17.00
2022-12-05T08:46:46.184Z,18.83
2022-12-05T08:49:14.661Z,16.20
2022-12-05T08:51:43.725Z,20.77
2022-12-05T08:54:12.267Z,18.77
2022-12-05T08:56:40.274Z,16.83
2022-12-05T08:59:08.457Z,20.00
2022-12-05T09:01:39.258Z,14.20
2022-12-05T09:04:08.725Z,17.73
2022-12-05T09:06:39.126Z,15.70
2022-12-05T09:09:09.123Z,17.20
2022-12-05T09:11:40.812Z,21.90
2022-12-05T09:14:08.911Z,19.77
2022-12-05T09:16:39.659Z,15.87
2022-12-05T09:19:13.008Z,18.10
2022-12-05T09:21:41.070Z,18.67
2022-12-05T09:24:09.286Z,20.63
2022-12-05T09:26:37.595Z,20.20
2022-12-05T09:29:05.619Z,21.00
2022-12-05T09:31:33.964Z,17.73
2022-12-05T09:34:03.533Z,17.27
2022-12-05T09:36:32.715Z,23.70
2022-12-05T09:39:02.904Z,18.77
2022-12-05T09:42:08.867Z,23.37
2022-12-05T09:44:47.428Z,20.83
2022-12-05T09:47:24.647Z,18.00
2022-12-05T09:49:58.455Z,23.80
2022-12-05T09:52:29.325Z,22.60
2022-12-05T09:54:59.410Z,21.13
2022-12-05T09:57:34.766Z,24.23
2022-12-05T10:00:06.448Z,23.97
2022-12-05T10:02:43.500Z,20.77
2022-12-05T10:05:18.155Z,23.00
2022-12-05T10:07:59.666Z,25.70
2022-12-05T10:10:35.325Z,21.43
2022-12-05T10:13:29.290Z,24.60
2022-12-05T10:16:01.683Z,23.87
2022-12-05T10:18:38.732Z,23.53
2022-12-05T10:21:16.612Z,22.20
2022-12-05T10:23:58.368Z,24.93
2022-12-05T10:26:31.370Z,17.73
2022-12-05T10:29:10.347Z,22.03
2022-12-05T10:31:40.100Z,22.47
2022-12-05T10:34:16.432Z,21.07
2022-12-05T10:36:55.774Z,20.07
2022-12-05T10:39:24.120Z,17.80
2022-12-05T10:41:52.327Z,22.07
2022-12-05T10:44:20.862Z,20.43
2022-12-05T10:46:49.638Z,22.13
2022-12-05T10:49:19.189Z,18.27
2022-12-05T10:51:49.267Z,21.93
2022-12-05T10:54:21.206Z,25.20
2022-12-05T10:56:50.801Z,20.40
2022-12-05T10:59:20.834Z,15.33
2022-12-05T11:01:52.402Z,16.37
2022-12-05T11:04:27.009Z,22.10
2022-12-05T11:06:59.712Z,21.47
2022-12-05T11:09:29.744Z,16.33
2022-12-05T11:12:19.622Z,23.33
2022-12-05T11:15:00.128Z,20.17
2022-12-05T11:17:33.055Z,20.90
2022-12-05T11:20:01.745Z,23.30
2022-12-05T11:22:36.233Z,21.70
2022-12-05T11:25:29.889Z,21.77
2022-12-05T11:28:01.383Z,21.77
2022-12-05T11:30:30.720Z,20.33
2022-12-05T11:33:18.839Z,22.90
2022-12-05T11:35:47.584Z,23.27
2022-12-05T11:38:18.623Z,16.10
2022-12-05T11:40:54.442Z,14.53
2022-12-05T11:43:57.812Z,20.07
2022-12-05T11:46:33.783Z,22.57
2022-12-05T11:49:16.338Z,18.00
2022-12-05T11:51:51.975Z,23.00
2022-12-05T11:57:54.101Z,24.87
2022-12-05T12:00:26.275Z,15.77
2022-12-05T12:03:27.272Z,23.77
2022-12-05T12:06:10.103Z,18.23
2022-12-05T12:08:51.425Z,19.40
2022-12-05T12:11:32.110Z,17.60
2022-12-05T12:14:10.067Z,24.00
2022-12-05T12:16:46.668Z,18.57
2022-12-05T12:19:29.097Z,21.17
2022-12-05T12:22:13.620Z,17.90
2022-12-05T12:25:09.171Z,22.90
2022-12-05T12:27:52.605Z,19.00
2022-12-05T12:30:23.433Z,17.10
2022-12-05T12:33:03.998Z,22.67
2022-12-05T12:35:33.140Z,16.80
2022-12-05T12:38:21.946Z,19.00
2022-12-05T12:40:54.319Z,19.63
2022-12-05T12:43:53.777Z,19.17
2022-12-05T12:46:37.593Z,20.47
2022-12-05T12:49:37.037Z,17.50
2022-12-05T12:52:11.788Z,20.37
2022-12-05T12:55:13.794Z,13.60
2022-12-05T12:57:57.147Z,16.70
2022-12-05T13:00:36.394Z,21.17
2022-12-05T13:03:10.533Z,13.00
2022-12-05T13:05:44.351Z,15.00
2022-12-05T13:08:20.024Z,15.07
2022-12-05T13:10:49.994Z,15.07
2022-12-05T13:13:21.696Z,14.07
2022-12-05T13:15:53.677Z,14.27
2022-12-05T13:18:23.832Z,13.20
2022-12-05T13:20:54.408Z,13.00
2022-12-05T13:23:25.145Z,15.70
2022-12-05T13:25:55.151Z,14.40
2022-12-05T13:28:28.782Z,19.50
2022-12-05T13:31:01.374Z,15.23
2022-12-05T13:33:33.660Z,20.63
2022-12-05T13:36:27.398Z,18.63
2022-12-05T13:39:17.922Z,19.73
2022-12-05T13:42:06.001Z,18.63
2022-12-05T13:44:38.892Z,22.23
2022-12-05T13:47:21.387Z,17.30
2022-12-05T13:49:53.788Z,18.07
2022-12-05T13:52:26.077Z,19.63
2022-12-05T13:54:59.199Z,22.33
2022-12-05T13:57:47.896Z,17.27
2022-12-05T14:00:31.191Z,17.77
2022-12-05T14:03:06.809Z,19.60
2022-12-05T14:05:53.505Z,16.30
2022-12-05T14:08:53.408Z,19.40
2022-12-05T14:11:21.726Z,15.60
2022-12-05T14:13:50.220Z,18.03
2022-12-05T14:16:53.235Z,12.77
2022-12-05T14:20:01.362Z,16.10
2022-12-05T14:22:53.589Z,14.90
2022-12-05T14:25:31.265Z,15.90
2022-12-05T14:28:05.166Z,13.97
2022-12-05T14:30:44.708Z,15.23
2022-12-05T14:33:17.196Z,15.37
2022-12-05T14:35:51.422Z,13.70
2022-12-05T14:38:24.613Z,16.37
2022-12-05T14:40:53.236Z,14.50
2022-12-05T14:43:28.281Z,11.07
2022-12-05T14:46:01.311Z,12.53
2022-12-05T14:48:32.750Z,14.93
2022-12-05T14:51:03.026Z,18.90
2022-12-05T14:53:42.822Z,14.23
2022-12-05T14:56:19.548Z,16.07
2022-12-05T14:58:52.508Z,13.10
2022-12-05T15:01:23.743Z,11.80
2022-12-05T15:04:15.453Z,20.33
2022-12-05T15:06:52.212Z,13.30
2022-12-05T15:09:37.997Z,15.20
2022-12-05T15:12:12.240Z,12.93
2022-12-05T15:14:54.239Z,14.20
2022-12-05T15:17:26.583Z,12.63
2022-12-05T15:20:03.749Z,13.67
2022-12-05T15:22:36.313Z,12.27
2022-12-05T15:25:22.337Z,12.80
2022-12-05T15:27:59.341Z,11.73
2022-12-05T15:30:28.820Z,13.07
2022-12-05T15:32:59.684Z,13.77
2022-12-05T15:35:32.848Z,15.03
2022-12-05T15:38:09.312Z,10.07
2022-12-05T15:40:40.584Z,13.37
2022-12-05T15:43:29.297Z,11.60
2022-12-05T15:46:20.158Z,9.63
2022-12-05T15:48:48.390Z,10.23
2022-12-05T15:51:16.845Z,10.93
2022-12-05T15:53:49.975Z,12.60
2022-12-05T15:56:22.463Z,11.50
2022-12-05T15:58:55.786Z,19.70
2022-12-05T16:01:26.131Z,15.10
2022-12-05T16:03:56.546Z,11.90
2022-12-05T16:06:29.808Z,11.53
2022-12-05T16:09:01.909Z,10.27
2022-12-05T16:11:29.968Z,11.10
2022-12-05T16:14:01.964Z,9.93
2022-12-05T16:16:33.924Z,11.10
2022-12-05T16:19:06.253Z,8.60
2022-12-05T16:21:38.917Z,10.70
2022-12-05T16:24:16.337Z,9.40
2022-12-05T16:26:44.853Z,10.20
2022-12-05T16:29:28.117Z,9.70
2022-12-05T16:31:57.830Z,13.83
2022-12-05T16:34:27.320Z,11.93
2022-12-05T16:36:57.225Z,11.93
2022-12-05T16:39:28.188Z,15.47
2022-12-05T16:41:56.651Z,10.13
2022-12-05T16:44:57.640Z,8.57
2022-12-05T16:47:27.721Z,10.27
2022-12-05T16:49:55.720Z,7.30
2022-12-05T16:52:23.817Z,7.00
2022-12-05T16:54:53.267Z,9.30
2022-12-05T16:57:21.598Z,7.40
2022-12-05T16:59:49.899Z,10.40
2022-12-05T17:02:19.975Z,7.77
2022-12-05T17:04:48.145Z,8.80
2022-12-05T17:07:16.224Z,8.30
2022-12-05T17:09:44.304Z,11.07
2022-12-05T17:12:19.535Z,10.20
2022-12-05T17:14:47.653Z,7.87
2022-12-05T17:17:18.067Z,9.07
2022-12-05T17:19:46.166Z,10.97
2022-12-05T17:22:16.046Z,8.80
2022-12-05T17:24:44.113Z,9.70
2022-12-05T17:27:13.859Z,11.03
2022-12-05T17:29:41.849Z,6.43
2022-12-05T17:32:11.249Z,8.43
2022-12-05T17:34:39.284Z,7.83
2022-12-05T17:37:07.380Z,6.67
2022-12-05T17:39:35.391Z,8.33
2022-12-05T17:42:03.694Z,9.77
2022-12-05T17:44:33.096Z,11.10
2022-12-05T17:47:07.489Z,10.33
2022-12-05T17:49:36.177Z,9.50
2022-12-05T17:52:21.899Z,8.70
2022-12-05T17:54:50.821Z,5.60
2022-12-05T17:57:18.897Z,8.10
2022-12-05T17:59:48.290Z,9.30
2022-12-05T18:02:17.404Z,8.27
2022-12-05T18:04:45.470Z,6.63
2022-12-05T18:07:14.119Z,8.40
2022-12-05T18:09:43.542Z,7.70
2022-12-05T18:12:11.616Z,8.20
2022-12-05T18:14:39.633Z,4.80
2022-12-05T18:17:08.983Z,6.07
2022-12-05T18:19:37.057Z,4.30
2022-12-05T18:22:05.177Z,6.27
2022-12-05T18:24:33.376Z,5.70
2022-12-05T18:27:01.564Z,4.20
2022-12-05T18:29:29.599Z,4.10
2022-12-05T18:31:57.789Z,3.43
2022-12-05T18:34:27.283Z,3.50
2022-12-05T18:36:56.043Z,5.67
2022-12-05T18:39:24.112Z,4.30
2022-12-05T18:41:52.103Z,8.13
2022-12-05T18:44:20.269Z,20.13
2022-12-05T18:46:48.289Z,16.43
2022-12-05T18:49:17.426Z,16.80
2022-12-05T18:51:47.144Z,16.30
2022-12-05T18:54:15.704Z,18.83
2022-12-05T18:56:45.860Z,19.03
2022-12-05T18:59:16.398Z,17.57
2022-12-05T19:01:45.857Z,16.23
2022-12-05T19:04:15.556Z,14.43
2022-12-05T19:06:50.321Z,16.43
2022-12-05T19:09:20.677Z,14.27
2022-12-05T19:11:50.731Z,11.73
2022-12-05T19:14:20.842Z,12.70
2022-12-05T19:16:54.990Z,11.30
2022-12-05T19:19:26.575Z,10.17
2022-12-05T19:21:56.099Z,9.20
2022-12-05T19:24:24.123Z,9.90
2022-12-05T19:26:52.330Z,9.97
2022-12-05T19:29:20.497Z,9.00
2022-12-05T19:31:48.598Z,9.00
2022-12-05T19:34:16.629Z,12.30
2022-12-05T19:36:46.491Z,12.83
2022-12-05T19:39:17.941Z,10.10
2022-12-05T19:41:46.531Z,11.40
2022-12-05T19:44:15.361Z,9.70
2022-12-05T19:46:44.146Z,11.57
2022-12-05T19:49:23.485Z,9.90
2022-12-05T19:51:52.511Z,8.17
2022-12-05T19:54:24.021Z,5.73
2022-12-05T19:56:52.651Z,7.80
2022-12-05T19:59:21.214Z,10.30
2022-12-05T20:01:49.368Z,6.00
2022-12-05T20:04:17.717Z,13.30
2022-12-05T20:06:47.244Z,9.00
2022-12-05T20:09:18.171Z,9.67
2022-12-05T20:11:55.209Z,5.67
2022-12-05T20:14:26.429Z,9.27
2022-12-05T20:16:54.627Z,10.03
2022-12-05T20:19:22.951Z,9.40
2022-12-05T20:21:50.959Z,10.20
2022-12-05T20:24:18.942Z,9.40
2022-12-05T20:26:48.339Z,8.30
2022-12-05T20:29:16.439Z,11.50
2022-12-05T20:31:44.645Z,11.97
2022-12-05T20:34:15.064Z,11.77
2022-12-05T20:36:43.654Z,11.20
2022-12-05T20:39:15.171Z,9.13
2022-12-05T20:41:43.785Z,12.30
2022-12-05T20:44:18.184Z,14.77
2022-12-05T20:46:46.780Z,13.53
2022-12-05T20:49:15.163Z,16.30
2022-12-05T20:51:44.827Z,11.20
2022-12-05T20:54:13.631Z,13.70
2022-12-05T20:56:42.241Z,12.40
2022-12-05T20:59:13.878Z,15.27
2022-12-05T21:01:42.068Z,8.90
2022-12-05T21:04:12.318Z,9.73
2022-12-05T21:06:42.826Z,6.37
2022-12-05T21:09:15.421Z,8.50
2022-12-05T21:11:44.237Z,10.10
2022-12-05T21:14:13.949Z,7.07
2022-12-05T21:16:42.068Z,6.70
2022-12-05T21:19:10.447Z,8.47
2022-12-05T21:21:39.577Z,7.53
2022-12-05T21:24:08.413Z,7.10
2022-12-05T21:26:36.932Z,7.80
2022-12-05T21:29:06.390Z,8.80
2022-12-05T21:31:38.231Z,6.83
2022-12-05T21:34:08.282Z,8.20
2022-12-05T21:36:37.306Z,7.00
2022-12-05T21:39:06.787Z,10.53
2022-12-05T21:41:35.732Z,6.27
2022-12-05T21:44:03.825Z,6.30
2022-12-05T21:46:32.499Z,9.37
2022-12-05T21:49:01.922Z,6.60
2022-12-05T21:51:29.968Z,5.33
2022-12-05T21:53:57.964Z,7.90
2022-12-05T21:56:26.240Z,8.07
2022-12-05T21:58:54.315Z,14.80
2022-12-05T22:01:24.449Z,7.77
2022-12-05T22:03:54.058Z,10.67
2022-12-05T22:06:24.259Z,9.77
2022-12-05T22:08:52.369Z,8.97
2022-12-05T22:11:23.588Z,11.47
2022-12-05T22:13:51.750Z,11.40
2022-12-05T22:16:20.447Z,6.20
2022-12-05T22:18:48.643Z,4.20
2022-12-05T22:21:18.708Z,3.83
2022-12-05T22:23:48.774Z,4.60
2022-12-05T22:26:18.744Z,3.67
2022-12-05T22:28:47.183Z,3.73
2022-12-05T22:31:16.727Z,1.97
2022-12-05T22:33:44.901Z,3.10
2022-12-05T22:36:15.089Z,2.83
2022-12-05T22:38:44.615Z,3.07
2022-12-05T22:41:15.949Z,3.30
2022-12-05T22:43:45.345Z,3.30
2022-12-05T22:46:15.336Z,2.37
2022-12-05T22:48:43.381Z,4.30
2022-12-05T22:51:12.176Z,3.27
2022-12-05T22:53:40.258Z,1.90
2022-12-05T22:56:10.254Z,4.37
2022-12-05T22:58:40.749Z,5.20
2022-12-05T23:01:14.092Z,3.20
2022-12-05T23:03:42.905Z,4.70
2022-12-05T23:06:12.355Z,7.00
2022-12-05T23:08:41.582Z,9.17
2022-12-05T23:11:10.842Z,7.27
2022-12-05T23:13:40.737Z,5.97
2022-12-05T23:16:11.041Z,9.80
2022-12-05T23:18:47.504Z,8.00
2022-12-05T23:21:21.107Z,6.57
2022-12-05T23:23:50.078Z,5.00
2022-12-05T23:26:19.390Z,5.10
2022-12-05T23:28:49.183Z,2.93
2022-12-05T23:31:17.928Z,3.63
2022-12-05T23:33:48.545Z,2.37
2022-12-05T23:36:19.665Z,3.77
2022-12-05T23:38:48.357Z,1.80
2022-12-05T23:41:18.473Z,5.90
2022-12-05T23:43:49.518Z,2.70
2022-12-05T23:46:19.733Z,1.93
2022-12-05T23:48:48.087Z,2.83
2022-12-05T23:51:17.929Z,3.23
2022-12-05T23:53:47.342Z,3.30
2022-12-05T23:56:18.123Z,2.67
2022-12-05T23:58:47.323Z,2.07
